Aviation Digital Data Service (ADDS)

Output produced by METARs form (0133 UTC 27 November 2014)
found at http://aviationweather.gov/adds/metars/
 
TAF COR KPBG 262358Z 2700/2724 36008KT 1SM -SN BR OVC015 
     FM270400 35008KT 1 1/2SM -SN BR OVC010 
     FM271000 34010G18KT P6SM SCT015 BKN025 
     FM271800 35006KT P6SM OVC050